Main page
METAR-TAF:

METAR-TAF

Airports :

Pohnpei, Micronesia

Pohnpei International Airport

latitude: 06-59N, longitude: 158-12E, elevation: 2 m

Current weather observation

The report was made 11 hours and 38 minutes ago, at 04:50 UTC
Wind 10 kt from the East
Temperature 31°C
Humidity 71%
Pressure 1006 hPa
Visibility: 24.1 km
Scattered clouds at a height of 1800 ft
Broken clouds at a height of 13000 ft
Overcast at a height of 30000 ft

METAR: PTPN 240450Z 08010KT 15SM SCT018 BKN130 OVC300 31/25 A2971 RMK LAST

Time: 03:28 (16:28 UTC)

Forecast

The report was made 17 hours and 5 minutes ago, at 23:23 UTC
Forecast valid from 24 at 00 UTC to 24 at 24 UTC
Wind 11 kt from the East/Northeast
Visibility: 10 km
Broken clouds at a height of 1800 ft
Broken clouds at a height of 13000 ft
showers in vicinity

TAF: PTPN 232323Z 2400/2424 07011KT P6SM VCSH BKN018 BKN130

Weather observations and forecasts of more than 4000 airports (METAR and TAF reports).

The available stations are represented by yellow and red dots on the map.

Hover mouse over dot to see the name of the station.

Then click to see weather observations and forecasts.

To change the map : click on the green buttons with a black cross to zoom in, on the green button with a dash to zoom out, or on the green arrows for adjacent maps.


METAR-TAF: